Terminal Aerodrome Forecast
Issued by NWS

Home | Current Version | Previous Version | Text Only | Print | Product List | Glossary On
Versions: 1 2 3 4 5 6 7 8 9 10 11 12 13 14 15 16 17
000
FTUS45 KTFX 271400 AAB
TAFLWT
TAF AMD
KLWT 271400Z 2714/2812 23004KT P6SM SCT002 BKN020
      TEMPO 2714/2716 4SM BR
     FM271600 31006KT P6SM SCT020 OVC050
      TEMPO 2721/2801 TSRA BKN020CB
     FM280400 27004KT P6SM SCT050 OVC080=

USA.gov is the U.S. government's official web portal to all federal, state and local government web resources and services.